Time;durP1;ratioP1;P1;durP2;ratioP2;P2;SDS_P1;SDS_P2;PMS_P1;PMS_P2;Temp;Humidity;BMP_temperature;BMP_pressure;BME280_temperature;BME280_humidity;BME280_pressure;Samples;Min_cycle;Max_cycle;Signal;HPM_P1;HPM_P2
2023/01/28 00:01:13;;;;;;;9.77;7.67;;;5.00;99.90;;;;;;4928353;29;20535;-78
2023/01/28 00:03:38;;;;;;;8.60;6.80;;;5.00;99.90;;;;;;4926401;29;20798;-79
2023/01/28 00:06:07;;;;;;;8.77;7.87;;;5.00;99.90;;;;;;4925019;29;20446;-79
2023/01/28 00:08:33;;;;;;;10.10;9.03;;;5.00;99.90;;;;;;4927819;29;20192;-79
2023/01/28 00:11:00;;;;;;;7.97;7.17;;;5.00;99.90;;;;;;4929388;29;20489;-79
2023/01/28 00:13:27;;;;;;;9.33;8.17;;;5.00;99.90;;;;;;4930884;29;20186;-79
2023/01/28 00:15:57;;;;;;;11.17;7.50;;;5.00;99.90;;;;;;4932769;29;20442;-79
2023/01/28 00:18:22;;;;;;;9.00;8.20;;;5.00;99.90;;;;;;4927112;29;20431;-79
2023/01/28 00:21:11;;;;;;;8.83;7.63;;;5.00;99.90;;;;;;4917344;29;20533;-79
2023/01/28 00:23:38;;;;;;;8.80;7.17;;;5.10;99.90;;;;;;4931315;29;20258;-79
2023/01/28 00:26:08;;;;;;;8.77;7.60;;;5.10;99.90;;;;;;4929395;29;20438;-79
2023/01/28 00:28:34;;;;;;;7.73;6.93;;;5.20;99.90;;;;;;4922798;29;20438;-79
2023/01/28 00:31:13;;;;;;;9.63;8.73;;;5.30;99.90;;;;;;4924008;29;20492;-79
2023/01/28 00:33:38;;;;;;;12.17;8.57;;;5.10;99.90;;;;;;4924138;29;20262;-80
2023/01/28 00:36:05;;;;;;;9.33;7.70;;;5.10;99.90;;;;;;4924402;29;20475;-79
2023/01/28 00:38:31;;;;;;;8.70;7.90;;;5.10;99.90;;;;;;4924356;29;20285;-80
2023/01/28 00:41:09;;;;;;;9.23;8.33;;;5.20;99.90;;;;;;4922583;29;20528;-80
2023/01/28 00:43:35;;;;;;;7.77;7.07;;;5.10;99.90;;;;;;4936211;29;20473;-79
2023/01/28 00:46:01;;;;;;;8.30;7.60;;;5.10;99.90;;;;;;4937496;29;20759;-79
2023/01/28 00:48:26;;;;;;;10.33;8.00;;;5.00;99.90;;;;;;4923437;29;20428;-78
2023/01/28 00:50:52;;;;;;;12.57;8.80;;;5.00;99.90;;;;;;4922178;29;20243;-79
2023/01/28 00:53:17;;;;;;;10.30;8.10;;;5.00;99.90;;;;;;4923714;29;20270;-79
2023/01/28 00:55:43;;;;;;;10.27;9.27;;;4.90;99.90;;;;;;4925521;29;20187;-79
2023/01/28 00:58:08;;;;;;;9.47;7.50;;;4.90;99.90;;;;;;4926329;29;20179;-82
2023/01/28 01:00:34;;;;;;;12.00;8.00;;;4.90;99.90;;;;;;4928110;29;20190;-79
2023/01/28 01:02:59;;;;;;;11.53;8.30;;;4.90;99.90;;;;;;4929853;29;20638;-79
2023/01/28 01:05:25;;;;;;;9.00;7.80;;;4.90;99.90;;;;;;4931199;29;20232;-79
2023/01/28 01:07:50;;;;;;;9.67;8.37;;;4.90;99.90;;;;;;4933306;29;20190;-76
2023/01/28 01:10:19;;;;;;;10.07;8.57;;;4.90;99.90;;;;;;4934376;29;20179;-76
2023/01/28 01:12:48;;;;;;;12.07;9.00;;;4.90;99.90;;;;;;4931364;29;20187;-76
2023/01/28 01:15:15;;;;;;;9.43;8.43;;;4.80;99.90;;;;;;4917860;29;20490;-75
2023/01/28 01:17:43;;;;;;;9.60;8.60;;;4.80;99.90;;;;;;4918411;29;20438;-76
2023/01/28 01:20:25;;;;;;;13.50;9.00;;;4.80;99.90;;;;;;4927947;29;20439;-76
2023/01/28 01:22:51;;;;;;;10.57;8.30;;;4.80;99.90;;;;;;4922892;29;20463;-74
2023/01/28 01:25:17;;;;;;;8.73;7.70;;;4.80;99.90;;;;;;4924806;29;20459;-74
2023/01/28 01:27:46;;;;;;;9.40;8.50;;;4.80;99.90;;;;;;4926225;29;20864;-75
2023/01/28 01:30:12;;;;;;;7.77;6.97;;;4.90;99.90;;;;;;4928417;29;20466;-75
2023/01/28 01:32:38;;;;;;;9.73;8.07;;;4.90;99.90;;;;;;4930544;29;20494;-75
2023/01/28 01:35:06;;;;;;;8.20;7.40;;;4.80;99.90;;;;;;4932333;29;20252;-75
2023/01/28 01:37:31;;;;;;;9.70;7.77;;;4.80;99.90;;;;;;4933984;29;20547;-75
2023/01/28 01:39:57;;;;;;;8.07;7.10;;;4.80;99.90;;;;;;4935854;29;20431;-75
2023/01/28 01:42:26;;;;;;;9.87;7.73;;;4.80;99.90;;;;;;4934774;29;20190;-75
2023/01/28 01:44:57;;;;;;;9.97;7.27;;;4.80;99.90;;;;;;4933231;29;20188;-73
2023/01/28 01:47:28;;;;;;;8.47;6.90;;;4.80;99.90;;;;;;4930129;29;20497;-73
2023/01/28 01:49:54;;;;;;;7.47;6.77;;;4.80;99.90;;;;;;4923681;29;20434;-74
2023/01/28 01:52:25;;;;;;;8.37;6.80;;;4.90;99.90;;;;;;4924823;29;20474;-73
2023/01/28 01:54:55;;;;;;;8.57;7.77;;;4.80;99.90;;;;;;4926703;29;20441;-73
2023/01/28 01:57:26;;;;;;;8.33;7.47;;;4.90;99.90;;;;;;4928351;29;20462;-75
2023/01/28 01:59:52;;;;;;;8.47;7.30;;;4.90;99.90;;;;;;4930200;29;20431;-76
2023/01/28 02:02:18;;;;;;;8.60;7.10;;;4.90;99.90;;;;;;4931979;29;20431;-75
2023/01/28 02:04:44;;;;;;;7.03;6.37;;;4.80;99.90;;;;;;4933574;29;20486;-75
2023/01/28 02:07:15;;;;;;;10.60;7.00;;;4.80;99.90;;;;;;4935026;29;20187;-76
2023/01/28 02:09:41;;;;;;;9.93;7.20;;;4.90;99.90;;;;;;4934498;29;20788;-76
2023/01/28 02:12:15;;;;;;;7.57;6.77;;;4.80;99.90;;;;;;4932598;29;20525;-76
2023/01/28 02:14:46;;;;;;;9.30;7.37;;;4.80;99.90;;;;;;4921001;29;20187;-76
2023/01/28 02:17:13;;;;;;;9.67;7.50;;;4.80;99.90;;;;;;4922821;29;20445;-76
2023/01/28 02:19:49;;;;;;;8.93;8.13;;;4.80;99.90;;;;;;4924379;29;20442;-76
2023/01/28 02:22:28;;;;;;;11.67;7.23;;;4.80;99.90;;;;;;4925614;29;20466;-76
2023/01/28 02:25:03;;;;;;;7.97;6.83;;;4.80;99.90;;;;;;4928015;29;20445;-77
2023/01/28 02:27:46;;;;;;;8.47;7.00;;;4.80;99.90;;;;;;4921737;29;20517;-74
2023/01/28 02:30:23;;;;;;;9.30;7.23;;;4.80;99.90;;;;;;4929202;29;20434;-75
2023/01/28 02:32:59;;;;;;;7.50;6.70;;;4.70;99.90;;;;;;4917680;29;20892;-75
2023/01/28 02:35:34;;;;;;;8.63;7.50;;;4.70;99.90;;;;;;4934469;29;21142;-75
2023/01/28 02:38:20;;;;;;;10.60;8.00;;;4.70;99.90;;;;;;4932962;29;20433;-75
2023/01/28 02:41:02;;;;;;;9.03;7.67;;;4.70;99.90;;;;;;4919884;29;20519;-75
2023/01/28 02:43:32;;;;;;;11.83;7.13;;;4.80;99.90;;;;;;4921629;29;20514;-75
2023/01/28 02:48:43;;;;;;;10.03;7.90;;;4.80;99.90;;;;;;4925301;29;20501;-76
2023/01/28 02:51:26;;;;;;;10.00;9.00;;;4.80;99.90;;;;;;4926622;29;20462;-73
2023/01/28 02:54:11;;;;;;;8.57;7.77;;;4.70;99.90;;;;;;4928666;29;20190;-75
2023/01/28 02:56:51;;;;;;;13.93;8.70;;;4.70;99.90;;;;;;4920414;29;20513;-74
2023/01/28 02:59:35;;;;;;;9.53;7.60;;;4.70;99.90;;;;;;4918217;29;21002;-75
2023/01/28 03:02:01;;;;;;;13.03;8.63;;;4.70;99.90;;;;;;4917048;29;20446;-76
2023/01/28 03:04:32;;;;;;;8.27;7.40;;;4.70;99.90;;;;;;4917922;29;20439;-76
2023/01/28 03:07:04;;;;;;;7.73;7.03;;;4.70;99.90;;;;;;4902529;29;20282;-75
2023/01/28 03:09:30;;;;;;;8.03;7.23;;;4.70;99.90;;;;;;4921037;29;20443;-76
2023/01/28 03:38:22;;;;;;;15.70;7.93;;;4.60;99.90;;;;;;4919797;29;20991;-76
2023/01/28 05:31:12;;;;;;;19.37;13.87;;;4.60;99.90;;;;;;5579528;23;20883;-72
2023/01/28 05:33:38;;;;;;;19.77;13.57;;;4.60;99.90;;;;;;4928340;29;20451;-72
2023/01/28 05:36:04;;;;;;;18.00;14.87;;;4.50;99.90;;;;;;4930187;29;20234;-70
2023/01/28 05:38:30;;;;;;;19.83;13.27;;;4.30;99.90;;;;;;4931914;29;20236;-72
2023/01/28 05:40:55;;;;;;;18.30;13.00;;;4.30;99.90;;;;;;4933526;29;21003;-72
2023/01/28 05:43:21;;;;;;;15.27;12.47;;;4.30;99.90;;;;;;4935283;29;20561;-70
2023/01/28 05:45:47;;;;;;;13.03;10.83;;;4.30;99.90;;;;;;4937790;29;20645;-70
2023/01/28 05:48:13;;;;;;;12.23;10.93;;;4.20;99.90;;;;;;4936174;29;20198;-70
2023/01/28 05:50:39;;;;;;;12.63;11.23;;;4.20;99.90;;;;;;4934217;29;20207;-69
2023/01/28 05:53:05;;;;;;;10.00;9.00;;;4.20;99.90;;;;;;4932911;29;20450;-69
2023/01/28 05:55:31;;;;;;;11.43;9.77;;;4.20;99.90;;;;;;4930435;29;20601;-69
2023/01/28 05:57:56;;;;;;;11.43;10.20;;;4.20;99.90;;;;;;4926074;29;20531;-69
2023/01/28 06:00:22;;;;;;;15.73;10.00;;;4.20;99.90;;;;;;4927764;29;20270;-69
2023/01/28 06:02:50;;;;;;;11.67;10.00;;;4.30;99.90;;;;;;4929308;29;20250;-69
2023/01/28 06:05:16;;;;;;;12.23;10.93;;;4.30;99.90;;;;;;4930787;29;20205;-69
2023/01/28 06:07:46;;;;;;;14.70;11.30;;;4.30;99.90;;;;;;4932729;29;20426;-69
2023/01/28 06:10:13;;;;;;;13.73;11.30;;;4.30;99.90;;;;;;4934188;29;20194;-69
2023/01/28 06:12:38;;;;;;;11.47;10.30;;;4.20;99.90;;;;;;4935821;29;20485;-69
2023/01/28 06:15:04;;;;;;;12.70;10.23;;;4.20;99.90;;;;;;4935931;29;20439;-69
2023/01/28 06:17:30;;;;;;;12.27;10.80;;;4.30;99.90;;;;;;4934425;29;20187;-71
2023/01/28 06:19:56;;;;;;;11.73;10.07;;;4.30;99.90;;;;;;4932535;29;20923;-71
2023/01/28 06:22:22;;;;;;;10.10;9.10;;;4.30;99.90;;;;;;4930738;29;20593;-71
2023/01/28 06:24:47;;;;;;;11.60;10.17;;;4.30;99.90;;;;;;4929074;29;20190;-71
2023/01/28 06:27:13;;;;;;;11.60;8.10;;;4.30;99.90;;;;;;4927173;29;20647;-71
2023/01/28 06:29:38;;;;;;;11.80;9.60;;;4.30;99.90;;;;;;4925676;29;20194;-70
2023/01/28 06:32:04;;;;;;;11.40;8.60;;;4.50;99.90;;;;;;4923507;29;20253;-73
2023/01/28 06:34:30;;;;;;;11.73;9.57;;;4.40;99.90;;;;;;4921621;29;20210;-72
2023/01/28 06:36:55;;;;;;;10.57;9.40;;;4.30;99.90;;;;;;4920369;29;20197;-71
2023/01/28 06:39:21;;;;;;;10.90;7.80;;;4.30;99.90;;;;;;4918526;29;20222;-72
2023/01/28 06:41:48;;;;;;;17.40;12.23;;;4.20;99.90;;;;;;4917925;29;20209;-74
2023/01/28 06:44:14;;;;;;;17.50;13.60;;;4.20;99.90;;;;;;4919421;29;20198;-70
2023/01/28 06:46:40;;;;;;;17.43;12.70;;;4.20;99.90;;;;;;4920904;29;20950;-70
2023/01/28 06:49:05;;;;;;;12.00;10.67;;;4.20;99.90;;;;;;4922088;29;20432;-70
2023/01/28 06:51:31;;;;;;;13.90;11.13;;;4.10;99.90;;;;;;4923419;29;20217;-72
2023/01/28 06:53:56;;;;;;;9.70;8.70;;;4.10;99.90;;;;;;4924993;29;20199;-69
2023/01/28 06:56:22;;;;;;;8.80;7.87;;;4.10;99.90;;;;;;4926681;29;20262;-71
2023/01/28 06:58:48;;;;;;;9.60;8.70;;;4.10;99.90;;;;;;4928524;29;20364;-69
2023/01/28 07:01:13;;;;;;;8.83;7.80;;;4.10;99.90;;;;;;4929881;29;20195;-70
2023/01/28 07:03:39;;;;;;;13.77;9.40;;;4.10;99.90;;;;;;4931703;29;20194;-73
2023/01/28 07:06:05;;;;;;;8.60;7.73;;;4.10;99.90;;;;;;4933472;29;20620;-71
2023/01/28 07:08:30;;;;;;;9.23;7.27;;;4.10;99.90;;;;;;4934289;29;20271;-71
2023/01/28 07:10:56;;;;;;;8.67;7.73;;;4.20;99.90;;;;;;4932993;29;20833;-71
2023/01/28 07:13:21;;;;;;;9.33;8.43;;;4.20;99.90;;;;;;4927314;29;20195;-68
2023/01/28 07:15:48;;;;;;;10.03;8.97;;;4.20;99.90;;;;;;4920908;29;20183;-72
2023/01/28 07:18:13;;;;;;;8.20;7.40;;;4.20;99.90;;;;;;4922476;29;20229;-73
2023/01/28 07:20:39;;;;;;;11.90;7.40;;;4.30;99.90;;;;;;4924121;29;20519;-72
2023/01/28 07:23:04;;;;;;;7.20;6.60;;;4.50;99.90;;;;;;4925930;29;20198;-71
2023/01/28 07:25:30;;;;;;;8.70;7.00;;;4.30;99.90;;;;;;4927318;29;20198;-73
2023/01/28 07:27:56;;;;;;;7.57;6.80;;;4.20;99.90;;;;;;4929430;29;20234;-73
2023/01/28 07:30:23;;;;;;;7.67;6.97;;;4.20;99.90;;;;;;4930640;29;20194;-72
2023/01/28 07:32:55;;;;;;;8.47;7.03;;;4.20;99.90;;;;;;4932111;29;20246;-71
2023/01/28 07:35:21;;;;;;;7.40;6.80;;;4.20;99.90;;;;;;4934026;29;20936;-69
2023/01/28 07:38:00;;;;;;;9.47;7.50;;;4.20;99.90;;;;;;4933604;29;20465;-74
2023/01/28 07:40:27;;;;;;;11.13;8.03;;;4.30;99.90;;;;;;4931407;29;20942;-71
2023/01/28 07:42:54;;;;;;;6.70;6.10;;;4.30;99.90;;;;;;4929691;29;20538;-71
2023/01/28 07:45:20;;;;;;;7.60;6.80;;;4.30;99.90;;;;;;4929111;29;20438;-73
2023/01/28 07:47:56;;;;;;;7.47;6.77;;;4.10;99.90;;;;;;4930024;29;20442;-73
2023/01/28 07:50:22;;;;;;;12.63;7.67;;;4.00;99.90;;;;;;4929427;29;20783;-71
2023/01/28 07:52:47;;;;;;;9.23;7.00;;;4.00;99.90;;;;;;4930983;29;20450;-73
2023/01/28 07:55:14;;;;;;;8.27;6.50;;;3.90;99.90;;;;;;4932955;29;20434;-73
2023/01/28 07:57:48;;;;;;;9.80;8.40;;;3.90;99.90;;;;;;4934317;29;20540;-74
2023/01/28 08:00:14;;;;;;;11.27;7.23;;;3.90;99.90;;;;;;4920497;29;20868;-72
2023/01/28 08:02:40;;;;;;;7.13;6.43;;;3.90;99.90;;;;;;4934085;29;20463;-72
2023/01/28 08:05:06;;;;;;;8.67;7.77;;;3.90;99.90;;;;;;4931595;29;20449;-73
2023/01/28 08:07:31;;;;;;;8.00;7.00;;;3.90;99.90;;;;;;4932071;29;20245;-74
2023/01/28 08:09:57;;;;;;;8.43;7.07;;;3.90;99.90;;;;;;4935022;29;20206;-73
2023/01/28 08:12:23;;;;;;;12.27;7.63;;;3.90;99.90;;;;;;4935557;29;20302;-72
2023/01/28 08:14:48;;;;;;;7.70;7.00;;;4.00;99.90;;;;;;4934159;29;20173;-72
2023/01/28 08:17:14;;;;;;;8.47;7.73;;;4.10;99.90;;;;;;4932779;29;20430;-74
2023/01/28 08:19:39;;;;;;;11.00;7.50;;;4.00;99.90;;;;;;4936481;29;20184;-72
2023/01/28 08:22:05;;;;;;;8.40;7.03;;;4.00;99.90;;;;;;4930037;29;20683;-72
2023/01/28 08:24:30;;;;;;;9.83;8.60;;;4.00;99.90;;;;;;4923347;29;20622;-71
2023/01/28 08:26:56;;;;;;;8.07;7.37;;;4.00;99.90;;;;;;4921454;29;20201;-73
2023/01/28 08:29:21;;;;;;;8.87;7.97;;;4.00;99.90;;;;;;4919643;29;20187;-74
2023/01/28 08:31:47;;;;;;;11.33;8.23;;;4.00;99.90;;;;;;4918979;29;20236;-71
2023/01/28 08:34:12;;;;;;;9.97;8.37;;;4.00;99.90;;;;;;4932941;29;20557;-73
2023/01/28 08:36:38;;;;;;;8.90;7.63;;;4.10;99.90;;;;;;4931360;29;20201;-73
2023/01/28 08:39:04;;;;;;;10.13;8.23;;;4.10;99.90;;;;;;4935036;29;20183;-72
2023/01/28 08:41:30;;;;;;;11.03;8.70;;;4.10;99.90;;;;;;4935534;29;20187;-71
2023/01/28 08:43:55;;;;;;;10.30;7.50;;;4.10;99.90;;;;;;4934924;29;20973;-71
2023/01/28 08:46:21;;;;;;;9.30;7.60;;;4.10;99.90;;;;;;4935880;29;20185;-69
2023/01/28 08:48:49;;;;;;;8.53;7.43;;;4.20;99.90;;;;;;4927038;29;20191;-70
2023/01/28 08:51:14;;;;;;;8.63;7.80;;;4.20;99.90;;;;;;4932457;29;20228;-73
2023/01/28 08:53:40;;;;;;;9.50;8.60;;;4.20;99.90;;;;;;4935023;29;20933;-75
2023/01/28 08:56:05;;;;;;;8.17;7.27;;;4.20;99.90;;;;;;4936160;29;20190;-71
2023/01/28 08:58:31;;;;;;;8.60;7.40;;;4.20;99.90;;;;;;4937152;29;20194;-71
2023/01/28 09:00:57;;;;;;;10.10;7.70;;;4.20;99.90;;;;;;4935762;29;20225;-70
2023/01/28 09:03:22;;;;;;;13.70;8.00;;;4.30;99.90;;;;;;4933800;29;20191;-71
2023/01/28 09:05:49;;;;;;;10.60;8.60;;;4.30;99.90;;;;;;4932143;29;20274;-70
2023/01/28 09:08:15;;;;;;;14.93;9.23;;;4.20;99.90;;;;;;4930512;29;20191;-70
2023/01/28 09:10:41;;;;;;;10.87;8.23;;;4.20;99.90;;;;;;4928769;29;20474;-70
2023/01/28 09:13:09;;;;;;;14.57;10.67;;;4.20;99.90;;;;;;4927142;29;20447;-70
2023/01/28 09:15:35;;;;;;;17.10;12.27;;;4.20;99.90;;;;;;4918526;29;20443;-71
2023/01/28 09:18:00;;;;;;;13.70;10.27;;;4.20;99.90;;;;;;4923526;29;20457;-71
2023/01/28 09:20:26;;;;;;;15.20;10.80;;;4.20;99.90;;;;;;4911730;29;20439;-70
2023/01/28 09:22:53;;;;;;;20.53;11.83;;;4.20;99.90;;;;;;4914748;29;20276;-70
2023/01/28 09:25:19;;;;;;;16.00;12.57;;;4.20;99.90;;;;;;4935592;29;20434;-71
2023/01/28 09:27:45;;;;;;;17.33;12.07;;;4.20;99.90;;;;;;4919363;29;20451;-71
2023/01/28 09:30:12;;;;;;;17.07;12.53;;;4.30;99.90;;;;;;4921543;29;20663;-70
2023/01/28 09:32:38;;;;;;;21.20;13.33;;;4.20;99.90;;;;;;4922178;29;20251;-69
2023/01/28 09:35:04;;;;;;;31.93;17.37;;;4.20;99.90;;;;;;4924017;29;20434;-69
2023/01/28 09:37:29;;;;;;;21.30;14.17;;;4.20;99.90;;;;;;4925856;29;20209;-68
2023/01/28 09:39:56;;;;;;;22.83;14.40;;;4.30;99.90;;;;;;4928392;29;20547;-70
2023/01/28 09:42:27;;;;;;;20.27;13.00;;;4.30;99.90;;;;;;4924592;29;20549;-68
2023/01/28 09:45:22;;;;;;;19.50;13.10;;;4.30;99.90;;;;;;4931498;29;20184;-70
2023/01/28 09:47:52;;;;;;;21.43;13.63;;;4.30;99.90;;;;;;4931069;29;20454;-70
2023/01/28 09:50:26;;;;;;;21.17;14.67;;;4.40;99.90;;;;;;4932861;29;20489;-72
2023/01/28 09:52:59;;;;;;;18.50;13.40;;;4.30;99.90;;;;;;4929402;29;20972;-71
2023/01/28 09:55:34;;;;;;;17.80;13.50;;;4.40;99.90;;;;;;4934080;29;20448;-73
2023/01/28 09:58:00;;;;;;;18.30;11.00;;;4.30;99.90;;;;;;4932245;29;20446;-70
2023/01/28 10:00:49;;;;;;;13.90;11.10;;;4.30;99.90;;;;;;4922192;29;20447;-72
2023/01/28 10:03:37;;;;;;;16.70;11.37;;;4.40;99.90;;;;;;4893484;29;20195;-69
2023/01/28 10:06:29;;;;;;;17.90;12.13;;;4.30;99.90;;;;;;4929631;29;20814;-69
2023/01/28 10:09:18;;;;;;;20.83;12.53;;;4.30;99.90;;;;;;4900864;29;20447;-70
2023/01/28 10:12:01;;;;;;;18.73;12.00;;;4.40;99.90;;;;;;4931508;29;20482;-70
2023/01/28 10:15:11;;;;;;;15.60;11.73;;;4.30;99.90;;;;;;4921369;29;20937;-70
2023/01/28 10:17:46;;;;;;;13.47;9.73;;;4.40;99.90;;;;;;4858321;29;20438;-70
2023/01/28 10:20:11;;;;;;;14.20;10.83;;;4.30;99.90;;;;;;4923910;29;20449;-70
2023/01/28 10:23:23;;;;;;;14.23;10.33;;;4.30;99.90;;;;;;4933747;29;20468;-70
2023/01/28 10:25:49;;;;;;;20.07;14.20;;;4.30;99.90;;;;;;4892957;29;20196;-70
2023/01/28 10:28:24;;;;;;;20.93;15.93;;;4.40;99.90;;;;;;4922692;29;20859;-74
2023/01/28 10:30:50;;;;;;;18.50;12.40;;;4.40;99.90;;;;;;4927623;29;20216;-71
2023/01/28 10:33:28;;;;;;;16.77;12.47;;;4.40;99.90;;;;;;4926185;29;20589;-71
2023/01/28 10:35:55;;;;;;;20.13;11.30;;;4.40;99.90;;;;;;4927928;29;20434;-71
2023/01/28 10:38:22;;;;;;;20.97;14.30;;;4.40;99.90;;;;;;4929093;29;20455;-72
2023/01/28 10:40:49;;;;;;;16.27;12.10;;;4.40;99.90;;;;;;4931335;29;20473;-71
2023/01/28 10:43:22;;;;;;;12.60;10.40;;;4.40;99.90;;;;;;4932671;29;20442;-69
2023/01/28 10:46:08;;;;;;;13.67;10.70;;;4.40;99.90;;;;;;4929445;29;20439;-69
2023/01/28 10:49:00;;;;;;;16.40;11.87;;;4.40;99.90;;;;;;4930303;29;20502;-71
2023/01/28 10:51:40;;;;;;;8.83;7.93;;;4.40;99.90;;;;;;4924265;29;20821;-71
2023/01/28 10:54:20;;;;;;;9.80;7.80;;;4.50;99.90;;;;;;4928963;29;20442;-71
2023/01/28 10:56:49;;;;;;;22.20;13.20;;;4.60;99.90;;;;;;4928426;29;20438;-72
2023/01/28 10:59:26;;;;;;;34.17;20.13;;;4.60;99.90;;;;;;4926184;29;20438;-71
2023/01/28 11:01:53;;;;;;;38.87;22.30;;;4.50;99.90;;;;;;4924770;29;20521;-71
2023/01/28 11:04:25;;;;;;;40.77;22.10;;;4.50;99.90;;;;;;4933873;29;20446;-69
2023/01/28 11:06:56;;;;;;;44.90;25.57;;;4.50;99.90;;;;;;4923094;29;20432;-70
2023/01/28 11:09:24;;;;;;;41.10;22.20;;;4.40;99.90;;;;;;4929538;29;20442;-71
2023/01/28 11:11:50;;;;;;;36.97;21.20;;;4.40;99.90;;;;;;4914498;29;20471;-72
2023/01/28 11:14:24;;;;;;;39.10;23.20;;;4.40;99.90;;;;;;4922023;29;20441;-81
2023/01/28 11:16:51;;;;;;;38.57;23.60;;;4.50;99.90;;;;;;4922739;29;20475;-77
2023/01/28 11:19:20;;;;;;;31.30;19.63;;;4.70;99.90;;;;;;4931029;29;20440;-74
2023/01/28 11:21:53;;;;;;;28.07;17.17;;;4.80;99.90;;;;;;4936704;29;20978;-73
2023/01/28 11:24:23;;;;;;;22.47;15.27;;;4.90;99.90;;;;;;4933104;29;20989;-73
2023/01/28 11:26:51;;;;;;;24.10;15.17;;;4.90;99.90;;;;;;4932766;29;20536;-73
2023/01/28 11:29:25;;;;;;;20.07;15.90;;;4.90;99.90;;;;;;4935355;29;20447;-73
2023/01/28 11:31:51;;;;;;;22.80;15.20;;;4.90;99.90;;;;;;4931412;29;20494;-72
2023/01/28 11:34:18;;;;;;;20.20;14.43;;;4.90;99.90;;;;;;4933455;29;20434;-72
2023/01/28 11:36:53;;;;;;;22.10;15.13;;;4.90;99.90;;;;;;4931631;29;20714;-72
2023/01/28 11:39:24;;;;;;;19.00;14.57;;;4.90;99.90;;;;;;4933320;29;20448;-72
2023/01/28 11:41:53;;;;;;;18.03;13.43;;;4.80;99.90;;;;;;4933501;29;20792;-73
2023/01/28 11:44:24;;;;;;;16.07;12.93;;;4.70;99.90;;;;;;4923082;29;20442;-73
2023/01/28 11:46:54;;;;;;;15.37;12.77;;;4.80;99.90;;;;;;4920808;29;20441;-72
2023/01/28 11:49:37;;;;;;;16.73;13.83;;;4.90;99.90;;;;;;4928517;29;20433;-72
2023/01/28 11:52:18;;;;;;;13.70;10.30;;;4.80;99.90;;;;;;4930974;29;20482;-72
2023/01/28 11:55:11;;;;;;;16.50;11.10;;;4.80;99.90;;;;;;4925182;29;20434;-75
2023/01/28 11:57:41;;;;;;;15.53;13.30;;;4.60;99.90;;;;;;4924061;29;20877;-73
2023/01/28 12:00:31;;;;;;;17.63;12.60;;;4.70;99.90;;;;;;4927822;29;20445;-72
2023/01/28 12:03:27;;;;;;;21.27;13.90;;;4.70;99.90;;;;;;4920117;29;20434;-72
2023/01/28 12:06:15;;;;;;;21.87;13.23;;;4.80;99.90;;;;;;4932744;29;20434;-72
2023/01/28 12:08:45;;;;;;;15.33;11.83;;;4.80;99.90;;;;;;4934671;29;20443;-72
2023/01/28 12:11:16;;;;;;;14.97;11.50;;;4.80;99.90;;;;;;4933488;29;20502;-72
2023/01/28 12:13:47;;;;;;;12.27;10.20;;;4.80;99.90;;;;;;4917452;29;20435;-72
2023/01/28 12:16:49;;;;;;;12.77;10.20;;;4.90;99.90;;;;;;4919205;29;20448;-72
2023/01/28 12:19:51;;;;;;;17.60;11.13;;;4.80;99.90;;;;;;4876992;29;20985;-72
2023/01/28 12:22:35;;;;;;;15.23;11.83;;;4.80;99.90;;;;;;4923812;29;20446;-72
2023/01/28 12:25:32;;;;;;;19.97;13.53;;;4.80;99.90;;;;;;4925495;29;20435;-71
2023/01/28 12:28:08;;;;;;;20.87;14.37;;;4.80;99.90;;;;;;4925021;29;20438;-71
2023/01/28 12:30:37;;;;;;;19.40;15.00;;;4.80;99.90;;;;;;4920157;29;20973;-71
2023/01/28 12:33:12;;;;;;;23.13;16.40;;;4.80;99.90;;;;;;4936039;29;20861;-71
2023/01/28 12:35:55;;;;;;;22.80;16.20;;;4.90;99.90;;;;;;4920271;29;20442;-71
2023/01/28 12:38:39;;;;;;;22.97;16.70;;;4.90;99.90;;;;;;4921016;29;20435;-71
2023/01/28 12:41:24;;;;;;;16.30;13.87;;;4.90;99.90;;;;;;4922650;29;20445;-71
2023/01/28 12:44:09;;;;;;;20.87;14.20;;;4.90;99.90;;;;;;4931520;29;20957;-72
2023/01/28 12:46:46;;;;;;;19.43;14.40;;;4.90;99.90;;;;;;4931634;29;20425;-72
2023/01/28 12:49:31;;;;;;;20.23;13.47;;;5.00;99.90;;;;;;4928358;29;20580;-71
2023/01/28 12:52:06;;;;;;;16.23;12.73;;;5.10;99.90;;;;;;4929921;29;20534;-72
2023/01/28 12:54:42;;;;;;;15.37;12.13;;;5.20;99.90;;;;;;4929379;29;20438;-71
2023/01/28 12:57:15;;;;;;;14.53;11.80;;;5.20;99.90;;;;;;4933465;29;20450;-78
2023/01/28 12:59:50;;;;;;;16.60;14.47;;;5.40;99.90;;;;;;4934308;29;20841;-74
2023/01/28 13:02:37;;;;;;;16.37;12.50;;;5.30;99.90;;;;;;4919072;29;20464;-75
2023/01/28 13:05:08;;;;;;;14.37;12.63;;;5.30;99.90;;;;;;4919093;29;20462;-75
2023/01/28 13:07:50;;;;;;;19.37;15.23;;;5.20;99.90;;;;;;4921003;29;20543;-74
2023/01/28 13:10:37;;;;;;;14.93;13.30;;;5.20;99.90;;;;;;4930224;29;20440;-75
2023/01/28 13:13:04;;;;;;;17.60;13.10;;;5.30;99.90;;;;;;4924476;29;20542;-74
2023/01/28 13:15:30;;;;;;;18.13;13.30;;;5.30;99.90;;;;;;4928260;29;20442;-75
2023/01/28 13:17:57;;;;;;;15.77;13.80;;;5.30;99.90;;;;;;4926728;29;20446;-74
2023/01/28 13:20:48;;;;;;;13.30;11.30;;;5.40;99.90;;;;;;4925276;29;20945;-74
2023/01/28 13:23:34;;;;;;;14.43;12.83;;;5.30;99.90;;;;;;4924823;29;20478;-73
2023/01/28 13:26:18;;;;;;;14.13;11.67;;;5.20;99.90;;;;;;4921555;29;20431;-73
2023/01/28 13:28:44;;;;;;;14.33;11.97;;;5.20;99.90;;;;;;4919549;29;20527;-73
2023/01/28 13:31:16;;;;;;;13.37;11.93;;;5.00;99.90;;;;;;4935648;29;20620;-73
2023/01/28 13:33:45;;;;;;;16.73;12.77;;;5.00;99.90;;;;;;4934054;29;20483;-74
2023/01/28 13:36:38;;;;;;;16.10;12.23;;;4.80;99.90;;;;;;4920912;29;20432;-74
2023/01/28 13:39:21;;;;;;;13.00;11.57;;;4.80;99.90;;;;;;4923594;29;20438;-72
2023/01/28 13:42:06;;;;;;;15.33;11.40;;;4.80;99.90;;;;;;4929006;29;20426;-72
2023/01/28 13:44:33;;;;;;;16.07;12.20;;;4.80;99.90;;;;;;4926224;29;20443;-72
2023/01/28 13:47:07;;;;;;;14.17;11.30;;;4.90;99.90;;;;;;4925510;29;20432;-72
2023/01/28 13:49:54;;;;;;;14.83;12.23;;;4.90;99.90;;;;;;4923723;29;20526;-73
2023/01/28 13:52:35;;;;;;;14.37;12.00;;;4.70;99.90;;;;;;4930805;29;20475;-75
2023/01/28 13:55:14;;;;;;;16.40;12.93;;;4.60;99.90;;;;;;4919532;29;20436;-76
2023/01/28 13:57:55;;;;;;;14.83;13.00;;;4.60;99.90;;;;;;4917733;29;20447;-75
2023/01/28 14:00:47;;;;;;;14.03;12.33;;;4.60;99.90;;;;;;4924878;29;20440;-74
2023/01/28 14:03:27;;;;;;;13.73;11.30;;;4.60;99.90;;;;;;4920551;29;20509;-73
2023/01/28 14:06:26;;;;;;;15.00;11.60;;;4.70;99.90;;;;;;4922051;29;20521;-72
2023/01/28 14:08:56;;;;;;;14.53;12.70;;;4.80;99.90;;;;;;4928616;29;20992;-72
2023/01/28 14:11:53;;;;;;;21.77;12.83;;;4.90;99.90;;;;;;4925954;29;20475;-72
2023/01/28 14:14:46;;;;;;;16.43;12.93;;;4.90;99.90;;;;;;4923751;29;20438;-70
2023/01/28 14:17:34;;;;;;;14.90;12.40;;;5.00;99.90;;;;;;4930001;29;20493;-71
2023/01/28 14:20:00;;;;;;;15.20;12.47;;;5.10;99.90;;;;;;4925107;29;20442;-71
2023/01/28 14:22:26;;;;;;;15.43;13.70;;;5.20;99.90;;;;;;4933162;29;20489;-71
2023/01/28 14:24:52;;;;;;;18.27;14.40;;;5.20;99.90;;;;;;4935221;29;20430;-71
2023/01/28 14:27:26;;;;;;;13.30;11.27;;;5.20;99.90;;;;;;4934369;29;20688;-72
2023/01/28 14:30:44;;;;;;;20.40;13.93;;;5.20;99.90;;;;;;4924477;29;20186;-72
2023/01/28 14:33:11;;;;;;;17.67;13.30;;;5.30;99.90;;;;;;4921103;29;20484;-74
2023/01/28 14:35:42;;;;;;;16.17;12.33;;;5.20;99.90;;;;;;4923472;29;20518;-73
2023/01/28 14:38:14;;;;;;;16.43;14.50;;;5.10;99.90;;;;;;4925020;29;20450;-73
2023/01/28 14:40:40;;;;;;;21.43;15.30;;;5.00;99.90;;;;;;4924933;29;20455;-72
2023/01/28 14:43:08;;;;;;;18.10;15.00;;;5.00;99.90;;;;;;4923523;29;20978;-72
2023/01/28 14:45:56;;;;;;;22.73;14.43;;;4.90;99.90;;;;;;4921538;29;20935;-71
2023/01/28 14:48:31;;;;;;;21.33;15.10;;;4.90;99.90;;;;;;4929488;29;20509;-72
2023/01/28 14:51:32;;;;;;;25.57;17.63;;;4.90;99.90;;;;;;4927926;29;20506;-72
2023/01/28 14:54:11;;;;;;;21.13;14.87;;;4.80;99.90;;;;;;4930531;29;20444;-72
2023/01/28 14:57:00;;;;;;;19.27;16.10;;;4.80;99.90;;;;;;4932628;29;20449;-72
2023/01/28 14:59:32;;;;;;;22.93;16.47;;;4.90;99.90;;;;;;4930603;29;20453;-72
2023/01/28 15:01:58;;;;;;;20.77;16.27;;;4.80;99.90;;;;;;4928804;29;21026;-72
2023/01/28 15:04:25;;;;;;;19.93;15.77;;;4.60;99.90;;;;;;4927321;29;20804;-72
2023/01/28 15:06:51;;;;;;;20.00;15.13;;;4.60;99.90;;;;;;4930770;29;20443;-72
2023/01/28 15:09:17;;;;;;;24.90;16.53;;;4.60;99.90;;;;;;4923524;29;20775;-73
2023/01/28 15:11:47;;;;;;;20.27;15.13;;;4.50;99.90;;;;;;4921951;29;20484;-72
2023/01/28 15:14:21;;;;;;;20.00;14.70;;;4.50;99.90;;;;;;4920219;29;20426;-73
2023/01/28 15:16:48;;;;;;;22.00;15.30;;;4.60;99.90;;;;;;4932334;29;20446;-74
2023/01/28 15:19:15;;;;;;;19.00;15.40;;;4.60;99.90;;;;;;4933995;29;20431;-73
2023/01/28 15:21:44;;;;;;;18.13;15.00;;;4.60;99.90;;;;;;4933720;29;20533;-74
2023/01/28 15:24:12;;;;;;;16.60;14.43;;;4.60;99.90;;;;;;4918467;29;20438;-73
2023/01/28 15:26:38;;;;;;;17.97;14.53;;;4.50;99.90;;;;;;4920233;29;20446;-74
2023/01/28 15:29:03;;;;;;;21.80;17.77;;;4.50;99.90;;;;;;4921624;29;20454;-73